Dover Hill, Indiana
Current Conditions -  °F | °C
As of 3:35 AM on Friday 28 Nov 2014 (Local Time) from KDCY Reporting Station
Overcast Overcast  
Wind Chill: 23°   Ceiling: 9000
Heat Index: 23°   Visibility: 10mi
Dew Point: 18°   Wind: 0mph
Humidity: 82%   Direction: NA
Pressure: 30.43"   Gusts: NA
Location:  38.6262°N, 86.7615°W
Report Text: KDCY 280935Z AUTO 00000KT 10SM OVC090 M05/M08 A3043 RMK AO2 T10501077
Loading
Personal Weather Stations






























Interactive Weather Map New forecast layout! Learn more

10-Day Weather Forecast

Advertisements
Track Severe Weather on mobile